Time;durP1;ratioP1;P1;durP2;ratioP2;P2;SDS_P1;SDS_P2;PMS_P1;PMS_P2;Temp;Humidity;BMP_temperature;BMP_pressure;BME280_temperature;BME280_humidity;BME280_pressure;Samples;Min_cycle;Max_cycle;Signal;HPM_P1;HPM_P2
2023/03/15 00:01:36;;;;;;;5.57;3.58;;;;;;;5.28;45.03;93833.59;5070787;28;20029;-75
2023/03/15 00:04:04;;;;;;;6.68;3.22;;;;;;;5.03;45.37;93823.56;5068775;28;20029;-74
2023/03/15 00:06:32;;;;;;;6.05;3.38;;;;;;;4.98;45.57;93815.34;5069488;28;20036;-75
2023/03/15 00:09:00;;;;;;;5.82;3.33;;;;;;;4.99;45.38;93819.59;5036845;28;20036;-74
2023/03/15 00:11:26;;;;;;;5.45;3.35;;;;;;;4.91;44.59;93815.84;5052716;28;20530;-75
2023/03/15 00:13:53;;;;;;;5.72;3.17;;;;;;;4.80;47.44;93812.44;5068111;28;20048;-75
2023/03/15 00:16:18;;;;;;;7.63;3.42;;;;;;;4.70;46.65;93814.88;5052690;28;20386;-75
2023/03/15 00:18:45;;;;;;;7.20;3.35;;;;;;;4.45;47.67;93811.56;5070731;28;20389;-74
2023/03/15 00:21:11;;;;;;;5.75;3.60;;;;;;;4.43;46.92;93825.47;5069328;28;20040;-75
2023/03/15 00:23:36;;;;;;;6.78;3.60;;;;;;;4.44;45.76;93796.28;5051944;28;20554;-74
2023/03/15 00:26:02;;;;;;;8.38;4.15;;;;;;;4.63;43.80;93816.28;5034294;28;20036;-74
2023/03/15 00:28:28;;;;;;;7.45;3.80;;;;;;;4.58;42.60;93818.41;5060758;28;20025;-74
2023/03/15 00:31:12;;;;;;;6.40;3.90;;;;;;;4.63;42.18;93821.44;5068557;28;20470;-75
2023/03/15 00:33:37;;;;;;;6.95;3.47;;;;;;;4.45;42.31;93762.72;5070863;28;20082;-74
2023/03/15 00:36:04;;;;;;;6.03;3.67;;;;;;;4.73;43.58;93812.06;5052086;28;20040;-74
2023/03/15 00:38:29;;;;;;;6.38;3.53;;;;;;;4.78;44.45;93812.56;5068667;28;20046;-74
2023/03/15 00:40:55;;;;;;;5.13;3.10;;;;;;;4.73;45.59;93806.94;5067338;28;20033;-75
2023/03/15 00:56:50;;;;;;;6.18;3.90;;;;;;;5.62;41.03;93800.03;5149693;27;20769;-79
2023/03/15 00:59:15;;;;;;;7.20;3.85;;;;;;;5.51;42.45;93787.19;5140014;27;20040;-78
2023/03/15 01:01:43;;;;;;;7.10;3.95;;;;;;;5.53;41.21;93793.03;5127935;28;20416;-78
2023/03/15 01:04:10;;;;;;;6.22;3.45;;;;;;;5.30;41.26;93777.66;5110960;28;20019;-79
2023/03/15 01:06:36;;;;;;;4.53;3.00;;;;;;;5.35;41.09;93787.59;5110838;28;20043;-80
2023/03/15 01:09:02;;;;;;;7.18;3.58;;;;;;;5.16;41.66;93775.34;5144695;27;20465;-80
2023/03/15 01:11:27;;;;;;;5.47;3.03;;;;;;;5.30;41.54;93784.56;5110644;28;20051;-80
2023/03/15 01:13:54;;;;;;;5.15;3.38;;;;;;;5.24;41.64;93765.25;5106400;28;20028;-80
2023/03/15 01:16:20;;;;;;;6.88;3.13;;;;;;;5.18;41.37;93770.03;5141496;27;20089;-80
2023/03/15 01:18:45;;;;;;;7.35;3.60;;;;;;;4.83;41.56;93715.25;5141556;27;20027;-80
2023/03/15 01:21:12;;;;;;;5.85;3.20;;;;;;;5.15;41.33;93761.66;5127138;28;20039;-80
2023/03/15 01:23:37;;;;;;;7.28;3.70;;;;;;;5.08;41.52;93757.91;5110414;28;20029;-80
2023/03/15 01:26:04;;;;;;;6.07;3.38;;;;;;;5.18;41.37;93750.25;5126802;28;20039;-80
2023/03/15 01:28:29;;;;;;;6.30;3.63;;;;;;;5.29;41.28;93758.00;5161957;27;20050;-80
2023/03/15 01:30:55;;;;;;;9.57;3.88;;;;;;;5.20;40.86;93752.72;5127395;28;20031;-79
2023/03/15 01:33:20;;;;;;;7.10;4.03;;;;;;;5.18;42.16;93737.38;5093465;28;20038;-80
2023/03/15 01:35:46;;;;;;;5.50;3.65;;;;;;;5.13;41.35;93754.97;5109963;28;20066;-80
2023/03/15 01:38:12;;;;;;;6.80;3.35;;;;;;;5.06;41.63;93735.78;5093314;28;20551;-80
2023/03/15 01:40:44;;;;;;;6.47;3.42;;;;;;;5.14;41.02;93733.44;5109923;28;20031;-80
2023/03/15 01:43:17;;;;;;;6.25;3.17;;;;;;;5.00;41.66;93731.94;5109885;28;20047;-79
2023/03/15 01:46:01;;;;;;;5.63;3.13;;;;;;;5.13;41.43;93734.38;5111157;28;20118;-80
2023/03/15 01:48:34;;;;;;;5.85;3.20;;;;;;;4.96;42.41;93709.97;5126163;28;20116;-80
2023/03/15 01:51:01;;;;;;;6.28;3.40;;;;;;;5.05;42.67;93716.16;5129076;27;20027;-80
2023/03/15 01:53:26;;;;;;;6.40;3.60;;;;;;;5.10;42.15;93721.75;5144664;27;20023;-80
2023/03/15 01:55:52;;;;;;;5.60;3.20;;;;;;;5.09;43.44;93730.41;5106471;28;20051;-80
2023/03/15 01:58:20;;;;;;;5.68;3.10;;;;;;;4.93;42.17;93698.16;5113466;28;20034;-80
2023/03/15 02:00:45;;;;;;;6.57;3.35;;;;;;;4.99;41.90;93714.88;5130701;27;20032;-79
2023/03/15 02:03:13;;;;;;;4.63;3.10;;;;;;;5.22;41.73;93720.78;5096327;28;20558;-79
2023/03/15 02:05:47;;;;;;;6.10;3.70;;;;;;;5.24;41.24;93718.91;5128811;27;20067;-79
2023/03/15 02:08:13;;;;;;;6.43;3.42;;;;;;;5.22;41.00;93705.31;5143898;27;20093;-80
2023/03/15 02:10:42;;;;;;;4.65;2.70;;;;;;;5.44;41.33;93722.47;5093641;28;20398;-80
2023/03/15 02:13:08;;;;;;;6.90;2.85;;;;;;;5.33;44.00;93705.28;5129366;27;20554;-79
2023/03/15 02:15:33;;;;;;;5.90;3.42;;;;;;;5.35;41.55;93689.72;5109531;28;20024;-79
2023/03/15 02:17:59;;;;;;;5.40;3.00;;;;;;;5.23;40.83;93681.19;5109395;28;20158;-80
2023/03/15 02:20:36;;;;;;;5.28;2.95;;;;;;;5.34;40.80;93680.34;5111177;28;20160;-80
2023/03/15 02:23:01;;;;;;;4.03;2.70;;;;;;;5.13;41.58;93683.69;5113097;28;20028;-79
2023/03/15 02:26:03;;;;;;;5.55;2.92;;;;;;;5.25;41.75;93689.63;5113329;28;20036;-79
2023/03/15 02:28:29;;;;;;;7.10;3.00;;;;;;;5.18;41.18;93693.63;5113201;28;20042;-79
2023/03/15 02:30:55;;;;;;;6.38;2.92;;;;;;;5.07;41.36;93675.63;5095861;28;20081;-79
2023/03/15 02:33:24;;;;;;;4.70;2.85;;;;;;;4.92;41.26;93642.44;5096176;28;20028;-80
2023/03/15 02:35:50;;;;;;;4.88;2.97;;;;;;;5.11;41.38;93685.56;5112486;28;20059;-80
2023/03/15 02:38:16;;;;;;;4.07;2.58;;;;;;;5.08;41.22;93679.84;5112153;28;20492;-80
2023/03/15 02:40:41;;;;;;;6.93;3.28;;;;;;;4.99;41.17;93667.72;5113359;28;20031;-80
2023/03/15 02:43:18;;;;;;;4.80;2.50;;;;;;;4.87;41.28;93667.72;5091751;28;20040;-80
2023/03/15 02:45:43;;;;;;;4.35;2.78;;;;;;;5.14;41.30;93677.59;5092052;28;20032;-80
2023/03/15 02:48:09;;;;;;;5.90;2.85;;;;;;;5.13;41.39;93675.97;5075071;28;20039;-79
2023/03/15 02:50:34;;;;;;;5.30;3.70;;;;;;;5.15;41.53;93665.53;5114609;27;20038;-80
2023/03/15 02:53:01;;;;;;;5.40;3.03;;;;;;;5.21;41.74;93679.69;5095099;28;20072;-80
2023/03/15 02:55:28;;;;;;;5.97;3.20;;;;;;;4.86;42.14;93629.25;5111450;28;20050;-80
2023/03/15 02:57:53;;;;;;;4.50;2.95;;;;;;;5.05;42.35;93674.97;5095281;28;20027;-80
2023/03/15 03:00:19;;;;;;;4.35;2.90;;;;;;;5.20;42.21;93676.28;5095173;28;20408;-80
2023/03/15 03:02:45;;;;;;;5.05;2.95;;;;;;;5.15;42.63;93668.97;5095151;28;20045;-80
2023/03/15 03:05:11;;;;;;;5.07;2.88;;;;;;;4.92;43.21;93657.88;5111692;28;20531;-80
2023/03/15 03:07:37;;;;;;;5.75;3.00;;;;;;;5.09;42.75;93666.03;5110691;28;20070;-79
2023/03/15 03:10:04;;;;;;;5.93;3.10;;;;;;;4.99;43.26;93649.72;5094500;28;20074;-80
2023/03/15 03:12:29;;;;;;;4.78;2.95;;;;;;;5.10;44.55;93654.81;5094780;28;20032;-80
2023/03/15 03:14:55;;;;;;;5.88;3.47;;;;;;;5.09;44.46;93659.13;5094273;28;20035;-80
2023/03/15 03:17:21;;;;;;;5.50;3.15;;;;;;;4.88;45.50;93646.22;5112824;28;20590;-80
2023/03/15 03:19:47;;;;;;;6.57;3.30;;;;;;;4.91;45.25;93651.13;5111060;28;20043;-80
2023/03/15 03:22:12;;;;;;;8.38;3.80;;;;;;;4.70;45.22;93634.78;5094544;28;20031;-81
2023/03/15 03:24:38;;;;;;;7.30;3.50;;;;;;;4.79;45.74;93653.81;5094015;28;20495;-80
2023/03/15 03:27:04;;;;;;;6.90;3.88;;;;;;;4.70;45.60;93621.94;5094572;28;20027;-79
2023/03/15 03:29:29;;;;;;;7.18;3.85;;;;;;;4.67;46.85;93630.69;5094472;28;20040;-80
2023/03/15 03:31:55;;;;;;;5.60;3.40;;;;;;;4.67;46.18;93638.41;5094078;28;20031;-80
2023/03/15 03:34:20;;;;;;;5.47;3.55;;;;;;;4.67;45.90;93627.31;5112520;28;20035;-80
2023/03/15 03:36:47;;;;;;;6.72;3.70;;;;;;;4.59;46.65;93624.53;5094319;28;20030;-80
2023/03/15 03:39:12;;;;;;;6.78;3.92;;;;;;;4.69;46.87;93628.03;5107617;28;20060;-80
2023/03/15 03:41:38;;;;;;;7.88;3.80;;;;;;;4.60;47.47;93618.47;5090972;28;20062;-80
2023/03/15 03:44:04;;;;;;;5.45;3.80;;;;;;;4.69;47.54;93625.44;5090861;28;20020;-80
2023/03/15 03:46:29;;;;;;;7.05;4.70;;;;;;;4.50;48.02;93617.53;5092911;28;20056;-80
2023/03/15 03:48:54;;;;;;;6.28;4.30;;;;;;;4.63;47.89;93625.94;5094344;28;20028;-80
2023/03/15 03:51:20;;;;;;;5.85;4.10;;;;;;;4.56;47.56;93617.03;5077259;28;20028;-79
2023/03/15 03:53:45;;;;;;;7.45;3.83;;;;;;;4.57;47.95;93616.09;5110418;28;20032;-80
2023/03/15 03:56:11;;;;;;;7.20;4.20;;;;;;;4.65;47.86;93608.59;5093954;28;20522;-80
2023/03/15 03:58:36;;;;;;;8.38;4.28;;;;;;;4.61;48.15;93607.22;5111046;28;20028;-80
2023/03/15 04:01:02;;;;;;;8.48;4.65;;;;;;;4.58;48.19;93617.75;5110597;28;20035;-80
2023/03/15 04:03:28;;;;;;;9.73;4.13;;;;;;;4.56;48.28;93605.00;5093387;28;20032;-80
2023/03/15 04:05:54;;;;;;;22.42;10.20;;;;;;;4.41;48.16;93575.34;5094071;28;20504;-80
2023/03/15 04:08:20;;;;;;;16.65;9.18;;;;;;;4.48;48.97;93615.91;5093378;28;20397;-80
2023/03/15 04:10:52;;;;;;;12.73;6.32;;;;;;;4.44;49.00;93617.06;5110363;28;20031;-79
2023/03/15 04:13:21;;;;;;;8.68;5.57;;;;;;;4.49;47.08;93609.00;5111262;28;20085;-80
2023/03/15 04:15:47;;;;;;;8.75;5.00;;;;;;;4.41;46.53;93601.06;5125988;27;20516;-80
2023/03/15 04:18:12;;;;;;;12.63;9.23;;;;;;;4.14;46.36;93584.25;5108876;28;20035;-80
2023/03/15 04:20:38;;;;;;;11.35;8.77;;;;;;;4.37;46.21;93603.03;5091413;28;20279;-80
2023/03/15 04:23:06;;;;;;;8.27;6.30;;;;;;;4.03;45.62;93545.72;5091688;28;20544;-80
2023/03/15 04:25:31;;;;;;;8.30;5.15;;;;;;;4.07;47.66;93592.56;5093104;28;20043;-80
2023/03/15 04:28:01;;;;;;;7.13;4.88;;;;;;;4.12;47.57;93600.72;5109366;28;20103;-80
2023/03/15 04:30:27;;;;;;;7.47;5.15;;;;;;;4.11;48.37;93597.34;5093960;28;20042;-80
2023/03/15 04:32:57;;;;;;;27.25;10.73;;;;;;;4.13;49.49;93598.06;5075672;28;20126;-80
2023/03/15 04:35:27;;;;;;;23.95;9.60;;;;;;;4.03;49.66;93587.66;5094146;28;20039;-80
2023/03/15 04:37:52;;;;;;;37.83;14.20;;;;;;;4.08;49.77;93587.31;5111679;28;20194;-80
2023/03/15 04:40:18;;;;;;;47.03;16.08;;;;;;;4.25;50.04;93591.16;5093085;28;20386;-80
2023/03/15 04:42:43;;;;;;;58.70;18.08;;;;;;;4.27;49.68;93599.56;5109390;28;20023;-80
2023/03/15 04:45:09;;;;;;;53.35;17.63;;;;;;;4.11;50.07;93584.50;5109924;28;20082;-80
2023/03/15 04:47:35;;;;;;;21.63;9.20;;;;;;;4.09;50.47;93583.78;5093259;28;20076;-80
2023/03/15 04:50:00;;;;;;;17.42;8.35;;;;;;;4.20;49.79;93588.09;5110427;28;20028;-80
2023/03/15 04:52:26;;;;;;;9.55;5.63;;;;;;;4.20;49.74;93585.53;5088933;28;20516;-79
2023/03/15 04:54:51;;;;;;;11.38;6.25;;;;;;;4.37;49.11;93602.22;5074031;28;20406;-80
2023/03/15 04:57:17;;;;;;;9.05;5.65;;;;;;;4.31;48.11;93606.09;5109973;28;20027;-79
2023/03/15 04:59:42;;;;;;;9.60;7.20;;;;;;;4.19;47.51;93607.06;5092378;28;20040;-80
2023/03/15 05:02:08;;;;;;;10.73;5.13;;;;;;;4.28;47.53;93584.94;5089149;28;20032;-80
2023/03/15 05:04:33;;;;;;;14.75;13.23;;;;;;;4.17;47.07;93608.91;5105387;28;20370;-80
2023/03/15 05:06:59;;;;;;;11.05;8.52;;;;;;;4.33;47.87;93608.56;5092570;28;20039;-80
2023/03/15 05:09:24;;;;;;;10.18;5.50;;;;;;;4.55;47.42;93607.72;5089721;28;20039;-80
2023/03/15 05:11:50;;;;;;;9.65;4.80;;;;;;;4.58;48.30;93602.31;5072916;28;20028;-80
2023/03/15 05:14:15;;;;;;;9.95;4.85;;;;;;;4.66;46.61;93616.22;5073170;28;20635;-80
2023/03/15 05:16:42;;;;;;;7.22;4.05;;;;;;;4.50;47.50;93608.06;5105451;28;20436;-80
2023/03/15 05:19:07;;;;;;;6.18;3.95;;;;;;;4.35;48.55;93602.38;5106068;28;20092;-80
2023/03/15 05:21:33;;;;;;;11.98;6.10;;;;;;;4.54;48.64;93601.75;5105879;28;20513;-80
2023/03/15 05:23:58;;;;;;;14.27;6.90;;;;;;;4.52;48.85;93587.38;5088340;28;20417;-79
2023/03/15 05:26:24;;;;;;;17.08;8.27;;;;;;;4.58;48.87;93592.84;5106104;28;20063;-80
2023/03/15 05:28:51;;;;;;;10.35;5.60;;;;;;;4.55;49.39;93582.81;5106966;28;20073;-80
2023/03/15 05:31:16;;;;;;;25.75;11.32;;;;;;;4.62;49.19;93581.38;5073820;28;20046;-80
2023/03/15 05:33:45;;;;;;;24.45;11.10;;;;;;;4.63;49.22;93577.06;5076149;28;20201;-80
2023/03/15 05:36:14;;;;;;;27.33;12.57;;;;;;;4.69;49.29;93585.09;5108197;28;20657;-80
2023/03/15 05:38:40;;;;;;;26.50;13.85;;;;;;;4.78;49.25;93580.97;5092647;28;20122;-80
2023/03/15 05:41:07;;;;;;;38.22;17.65;;;;;;;4.66;49.45;93579.38;5093115;28;20119;-80
2023/03/15 05:43:32;;;;;;;39.50;18.05;;;;;;;4.74;49.47;93587.31;5093373;28;20114;-80
2023/03/15 05:45:58;;;;;;;23.55;11.60;;;;;;;4.79;49.08;93569.75;5106928;28;20440;-80
2023/03/15 05:48:23;;;;;;;20.02;9.93;;;;;;;4.75;49.29;93582.97;5090980;28;20040;-79
2023/03/15 05:50:49;;;;;;;11.25;6.70;;;;;;;4.77;49.59;93576.78;5091582;28;20531;-80
2023/03/15 05:53:14;;;;;;;7.85;4.40;;;;;;;4.78;49.63;93582.72;5092557;28;20080;-80
2023/03/15 05:55:40;;;;;;;9.60;6.30;;;;;;;4.90;48.10;93594.59;5090341;28;20132;-80
2023/03/15 05:58:05;;;;;;;12.43;8.45;;;;;;;4.92;47.90;93596.13;5110969;28;20020;-80
2023/03/15 06:00:31;;;;;;;19.33;11.00;;;;;;;5.08;47.65;93597.47;5108982;28;20510;-80
2023/03/15 06:02:56;;;;;;;15.13;7.93;;;;;;;5.17;47.00;93613.94;5091920;28;20198;-77
2023/03/15 06:05:22;;;;;;;12.50;8.10;;;;;;;5.45;47.26;93599.63;5090414;28;20040;-82
2023/03/15 06:07:47;;;;;;;8.23;5.40;;;;;;;5.37;48.00;93590.75;5110452;28;21139;-79
2023/03/15 06:10:13;;;;;;;12.68;7.80;;;;;;;6.13;47.04;93593.13;5105889;28;20032;-79
2023/03/15 06:12:38;;;;;;;11.90;6.95;;;;;;;6.05;47.18;93600.69;5108741;28;20024;-79
2023/03/15 06:15:04;;;;;;;10.70;4.70;;;;;;;6.06;47.13;93597.16;5105932;27;20028;-79
2023/03/15 06:17:30;;;;;;;7.28;4.72;;;;;;;6.98;44.70;93570.34;5107822;27;20023;-79
2023/03/15 06:19:56;;;;;;;6.47;4.60;;;;;;;9.39;39.24;93549.56;5091830;27;20111;-79
2023/03/15 06:22:23;;;;;;;6.78;4.45;;;;;;;11.07;36.35;93563.84;5075851;28;20039;-77
2023/03/15 06:24:48;;;;;;;5.40;3.90;;;;;;;11.15;35.60;93569.84;5088706;28;20097;-77
2023/03/15 06:27:14;;;;;;;6.00;4.07;;;;;;;9.63;38.29;93561.06;5107921;28;20032;-77
2023/03/15 06:29:39;;;;;;;5.25;3.90;;;;;;;8.73;39.50;93508.53;5092890;27;20059;-78
2023/03/15 06:32:05;;;;;;;10.73;5.82;;;;;;;8.88;40.15;93566.59;5093750;28;20023;-77
2023/03/15 06:34:30;;;;;;;19.20;9.73;;;;;;;9.68;38.10;93569.22;5106912;28;20039;-77
2023/03/15 06:36:56;;;;;;;15.23;9.75;;;;;;;9.13;38.76;93540.94;5090995;28;20450;-77
2023/03/15 06:39:22;;;;;;;16.42;9.20;;;;;;;8.87;39.93;93564.19;5108064;28;20032;-77
2023/03/15 06:41:48;;;;;;;13.55;8.88;;;;;;;8.64;39.60;93568.97;5094613;28;20024;-77
2023/03/15 06:44:13;;;;;;;19.10;9.43;;;;;;;8.42;40.41;93558.03;5108959;28;20101;-76
2023/03/15 06:46:39;;;;;;;22.23;11.65;;;;;;;8.31;40.51;93553.03;5075105;28;20035;-77
2023/03/15 06:49:04;;;;;;;24.42;13.50;;;;;;;9.16;39.21;93538.03;5109650;28;20433;-77
2023/03/15 06:51:29;;;;;;;23.77;13.38;;;;;;;9.36;38.74;93534.31;5090711;28;20032;-77
2023/03/15 06:53:55;;;;;;;27.80;13.43;;;;;;;11.14;35.88;93576.03;5104232;28;20027;-78
2023/03/15 06:56:21;;;;;;;21.88;11.63;;;;;;;12.07;33.87;93547.06;5107375;28;20123;-78
2023/03/15 06:58:46;;;;;;;32.28;16.08;;;;;;;13.25;32.09;93548.78;5105771;28;20028;-79
2023/03/15 07:01:12;;;;;;;24.50;13.98;;;;;;;13.96;30.90;93541.53;5105212;28;20019;-78
2023/03/15 07:03:38;;;;;;;31.25;16.88;;;;;;;13.28;31.90;93545.84;5108025;28;20032;-79
2023/03/15 07:06:04;;;;;;;18.35;11.32;;;;;;;13.39;31.64;93545.44;5108197;28;20432;-78
2023/03/15 07:08:30;;;;;;;12.15;8.73;;;;;;;13.56;30.44;93540.09;5101318;27;20042;-78
2023/03/15 07:10:56;;;;;;;11.77;7.82;;;;;;;13.45;30.75;93538.72;5104231;27;20054;-78
2023/03/15 07:13:21;;;;;;;17.00;7.78;;;;;;;12.73;31.97;93544.19;5073482;27;20086;-79
2023/03/15 07:15:52;;;;;;;11.30;7.00;;;;;;;12.82;32.01;93543.19;5084876;28;20452;-79
2023/03/15 07:18:20;;;;;;;9.45;6.40;;;;;;;12.98;31.07;93531.84;5103722;27;20035;-78
2023/03/15 07:20:45;;;;;;;8.40;5.25;;;;;;;12.61;30.92;93538.56;5084152;28;20034;-79
2023/03/15 07:23:11;;;;;;;15.93;6.50;;;;;;;12.01;32.62;93528.72;5107669;28;20027;-79
2023/03/15 07:25:36;;;;;;;10.18;5.90;;;;;;;11.62;32.43;93548.41;5091430;28;20027;-79
2023/03/15 07:28:02;;;;;;;10.32;4.95;;;;;;;11.59;32.14;93543.53;5107438;28;20015;-79
2023/03/15 07:30:27;;;;;;;7.28;5.20;;;;;;;11.50;33.49;93531.50;5107238;28;20039;-79
2023/03/15 07:32:53;;;;;;;8.85;5.60;;;;;;;11.34;34.56;93521.13;5108221;28;20481;-79
2023/03/15 07:35:18;;;;;;;12.35;5.20;;;;;;;10.81;33.82;93550.94;5107553;28;20032;-80
2023/03/15 07:37:44;;;;;;;7.82;4.72;;;;;;;10.90;33.25;93550.00;5076195;28;20500;-79
2023/03/15 07:40:11;;;;;;;9.98;5.97;;;;;;;11.14;33.72;93560.44;5110086;28;20032;-79
2023/03/15 07:42:36;;;;;;;10.07;5.95;;;;;;;10.85;34.13;93560.84;5076303;28;20408;-80
2023/03/15 07:45:03;;;;;;;7.75;5.35;;;;;;;11.07;34.09;93556.84;5092519;28;20043;-79
2023/03/15 07:47:29;;;;;;;8.60;5.03;;;;;;;11.17;33.81;93560.13;5110529;28;20022;-80
2023/03/15 07:49:55;;;;;;;9.15;5.05;;;;;;;11.06;33.87;93552.63;5092977;28;20033;-80
2023/03/15 07:52:21;;;;;;;8.15;4.72;;;;;;;10.69;33.96;93533.06;5111773;28;20023;-79
2023/03/15 07:54:47;;;;;;;13.48;5.45;;;;;;;11.16;34.20;93553.28;5110508;28;20422;-79
2023/03/15 07:57:12;;;;;;;12.02;5.10;;;;;;;11.45;34.00;93552.00;5110674;28;20034;-79
2023/03/15 07:59:38;;;;;;;18.20;5.90;;;;;;;11.60;33.79;93547.75;5091639;28;20034;-80
2023/03/15 08:02:04;;;;;;;6.72;4.25;;;;;;;11.13;33.39;93519.81;5108099;28;20512;-80
2023/03/15 08:04:29;;;;;;;5.65;4.40;;;;;;;11.17;33.51;93534.13;5091654;28;20031;-80
2023/03/15 08:06:55;;;;;;;6.88;4.38;;;;;;;11.30;33.93;93532.81;5108920;28;20051;-79
2023/03/15 08:09:20;;;;;;;7.75;4.63;;;;;;;11.60;34.20;93549.56;5091754;28;20480;-79
2023/03/15 08:11:46;;;;;;;7.10;5.30;;;;;;;11.55;33.46;93544.03;5109120;28;20473;-79
2023/03/15 08:14:11;;;;;;;8.27;4.80;;;;;;;11.58;33.76;93518.50;5110659;28;20045;-79
2023/03/15 08:16:37;;;;;;;5.85;4.10;;;;;;;11.89;34.09;93530.03;5110465;28;20031;-80
2023/03/15 08:19:02;;;;;;;8.68;4.45;;;;;;;12.16;33.77;93518.41;5111886;28;20031;-79
2023/03/15 08:21:27;;;;;;;8.50;4.68;;;;;;;12.29;34.23;93516.09;5093345;28;20031;-78
2023/03/15 08:23:53;;;;;;;6.97;4.72;;;;;;;12.35;33.90;93514.59;5093415;28;20046;-79
2023/03/15 08:26:18;;;;;;;7.80;4.90;;;;;;;12.40;34.10;93514.91;5093123;28;20028;-79
2023/03/15 08:28:44;;;;;;;7.22;4.47;;;;;;;12.36;33.50;93513.63;5110301;28;20501;-79
2023/03/15 08:31:12;;;;;;;8.40;3.88;;;;;;;12.28;32.82;93512.66;5111502;28;20566;-79
2023/03/15 08:33:38;;;;;;;7.00;3.63;;;;;;;12.24;32.70;93523.59;5110300;28;20477;-79
2023/03/15 08:36:04;;;;;;;3.97;3.35;;;;;;;12.39;32.36;93521.88;5093276;28;20023;-79
2023/03/15 08:38:29;;;;;;;5.55;4.05;;;;;;;12.12;33.54;93504.94;5093133;28;20071;-79
2023/03/15 08:40:58;;;;;;;7.03;4.45;;;;;;;12.32;33.21;93520.16;5110167;28;20443;-79
2023/03/15 08:43:24;;;;;;;5.35;4.25;;;;;;;12.23;33.23;93514.97;5110090;28;20569;-79
2023/03/15 08:45:49;;;;;;;6.97;4.25;;;;;;;12.29;33.19;93510.88;5092954;28;20027;-79
2023/03/15 08:48:15;;;;;;;6.90;4.32;;;;;;;11.97;32.94;93501.38;5093083;28;20024;-79
2023/03/15 08:50:41;;;;;;;6.93;4.18;;;;;;;11.98;32.67;93503.84;5093182;28;20501;-79
2023/03/15 08:53:07;;;;;;;6.70;4.32;;;;;;;11.92;33.18;93498.47;5093036;28;20100;-79
2023/03/15 08:55:32;;;;;;;7.57;4.45;;;;;;;11.69;32.93;93478.31;5109834;28;20139;-79
2023/03/15 08:58:00;;;;;;;7.00;4.35;;;;;;;11.78;33.13;93513.78;5093041;28;20023;-78
2023/03/15 09:00:26;;;;;;;7.63;6.05;;;;;;;11.97;33.05;93506.59;5111170;28;20024;-79
2023/03/15 09:02:52;;;;;;;19.88;13.70;;;;;;;12.23;32.72;93501.97;5076431;28;20031;-79
2023/03/15 09:05:17;;;;;;;12.40;8.27;;;;;;;12.37;32.36;93515.22;5093130;28;20477;-79
2023/03/15 09:07:43;;;;;;;7.18;4.43;;;;;;;12.42;31.97;93498.09;5096047;28;20465;-78
2023/03/15 09:10:12;;;;;;;9.27;7.07;;;;;;;12.27;31.93;93492.00;5097355;28;20432;-78
2023/03/15 09:12:37;;;;;;;5.78;3.92;;;;;;;12.19;31.33;93507.66;5097308;28;20027;-78
2023/03/15 09:15:03;;;;;;;6.57;3.83;;;;;;;11.94;31.69;93512.13;5080278;28;20561;-78
2023/03/15 09:17:28;;;;;;;6.97;3.80;;;;;;;11.69;32.32;93508.72;5114731;28;20031;-78
2023/03/15 09:19:54;;;;;;;4.88;3.60;;;;;;;11.81;33.00;93518.63;5114054;28;20477;-78
2023/03/15 09:22:19;;;;;;;5.03;3.55;;;;;;;11.77;33.79;93519.13;5079830;28;20149;-78
2023/03/15 09:24:45;;;;;;;5.03;3.72;;;;;;;11.73;33.58;93516.06;5115228;28;20031;-78
2023/03/15 09:27:10;;;;;;;6.22;3.80;;;;;;;11.79;34.05;93515.38;5079737;28;20127;-78
2023/03/15 09:29:36;;;;;;;5.80;3.53;;;;;;;11.63;33.58;93490.19;5113832;28;20032;-78
2023/03/15 09:32:02;;;;;;;6.15;3.95;;;;;;;11.63;34.11;93499.81;5096680;28;20039;-78
2023/03/15 09:34:27;;;;;;;7.65;4.35;;;;;;;11.82;34.03;93503.84;5079778;28;20114;-78
2023/03/15 09:36:53;;;;;;;5.70;3.60;;;;;;;11.82;34.28;93493.44;5113578;28;20111;-78
2023/03/15 09:39:20;;;;;;;5.97;4.22;;;;;;;11.88;34.75;93495.38;5113535;28;20032;-79
2023/03/15 09:41:48;;;;;;;6.57;3.85;;;;;;;11.80;34.55;93482.38;5096640;28;20031;-79
2023/03/15 09:44:17;;;;;;;6.93;3.40;;;;;;;11.78;34.20;93494.72;5096406;28;20036;-78
2023/03/15 09:46:51;;;;;;;5.22;3.83;;;;;;;11.86;34.66;93486.94;5113262;28;20032;-79
2023/03/15 09:49:39;;;;;;;5.35;3.53;;;;;;;11.85;34.38;93480.91;5096675;28;20492;-78
2023/03/15 09:52:15;;;;;;;8.48;4.28;;;;;;;11.99;34.19;93482.03;5114423;28;20104;-79
2023/03/15 09:54:44;;;;;;;6.97;4.28;;;;;;;12.02;34.37;93481.69;5113087;28;20114;-79
2023/03/15 09:57:17;;;;;;;8.77;5.20;;;;;;;12.16;34.36;93479.38;5079298;28;20032;-78
2023/03/15 09:59:45;;;;;;;11.00;5.18;;;;;;;12.00;34.67;93459.41;5113271;28;20028;-78
2023/03/15 10:02:31;;;;;;;8.18;4.15;;;;;;;12.06;34.55;93479.53;5113092;28;20412;-78
2023/03/15 10:05:06;;;;;;;7.28;3.70;;;;;;;12.07;34.14;93476.78;5112336;28;20115;-78
2023/03/15 10:07:32;;;;;;;5.45;3.50;;;;;;;11.83;34.75;93454.22;5114271;28;20100;-78
2023/03/15 10:09:57;;;;;;;7.93;3.58;;;;;;;11.95;34.28;93478.16;5113126;28;20505;-78
2023/03/15 10:12:31;;;;;;;5.75;3.30;;;;;;;11.27;34.62;93466.34;5079004;28;20028;-78
2023/03/15 10:15:18;;;;;;;6.32;3.25;;;;;;;11.43;34.91;93480.34;5096259;28;20031;-77
2023/03/15 10:18:11;;;;;;;4.22;3.30;;;;;;;11.60;35.20;93477.53;5112270;28;20121;-78
2023/03/15 10:20:40;;;;;;;3.97;2.97;;;;;;;11.62;34.83;93467.78;5113914;28;20630;-78
2023/03/15 10:23:20;;;;;;;5.68;3.10;;;;;;;11.71;34.52;93471.19;5079005;28;20069;-79
2023/03/15 10:25:46;;;;;;;5.68;3.53;;;;;;;11.74;34.95;93475.22;5112725;28;20567;-78
2023/03/15 10:28:18;;;;;;;6.82;3.33;;;;;;;11.67;34.91;93471.66;5112868;28;20036;-78
2023/03/15 10:30:46;;;;;;;11.27;6.82;;;;;;;11.57;34.51;93453.66;5112568;28;20027;-78
2023/03/15 10:33:27;;;;;;;7.07;5.18;;;;;;;11.37;35.20;93464.41;5112496;28;20039;-78
2023/03/15 10:35:53;;;;;;;12.88;5.10;;;;;;;11.41;34.58;93454.50;5111657;28;20019;-78
2023/03/15 10:38:20;;;;;;;9.38;5.25;;;;;;;11.30;34.82;93431.44;5111124;28;20447;-78
2023/03/15 10:40:47;;;;;;;5.70;3.50;;;;;;;11.50;35.57;93469.09;5094225;28;20020;-78
2023/03/15 10:43:19;;;;;;;7.45;3.60;;;;;;;11.58;34.74;93455.25;5111077;28;20031;-78
2023/03/15 10:46:34;;;;;;;8.98;5.05;;;;;;;11.68;34.38;93465.50;5077551;28;20028;-78
2023/03/15 10:49:07;;;;;;;11.82;7.43;;;;;;;11.80;34.20;93466.75;5078099;27;20545;-78
2023/03/15 10:51:43;;;;;;;7.18;4.63;;;;;;;11.34;35.01;93463.94;5111118;28;20122;-78
2023/03/15 10:54:26;;;;;;;5.22;3.72;;;;;;;11.41;34.22;93450.09;5112029;28;20106;-79
2023/03/15 10:57:02;;;;;;;6.15;3.72;;;;;;;11.49;34.59;93475.28;5094917;28;20040;-79
2023/03/15 10:59:29;;;;;;;5.82;3.53;;;;;;;11.58;34.51;93463.88;5094762;28;20455;-79
2023/03/15 11:02:10;;;;;;;5.95;4.00;;;;;;;11.72;34.32;93458.97;5111765;28;20026;-79
2023/03/15 11:04:41;;;;;;;6.45;3.53;;;;;;;11.75;33.84;93461.25;5113355;28;20036;-78
2023/03/15 11:07:07;;;;;;;5.55;3.88;;;;;;;11.62;33.85;93420.16;5095379;28;20409;-78
2023/03/15 11:09:50;;;;;;;6.70;3.55;;;;;;;11.73;34.06;93452.78;5111739;28;20034;-78
2023/03/15 11:12:23;;;;;;;7.53;3.50;;;;;;;11.59;34.35;93459.50;5111793;28;20066;-78
2023/03/15 11:14:50;;;;;;;7.28;3.67;;;;;;;11.70;34.15;93458.31;5078385;28;20023;-78
2023/03/15 11:17:20;;;;;;;6.03;3.58;;;;;;;11.66;34.32;93452.66;5111575;28;20031;-78
2023/03/15 11:19:53;;;;;;;5.43;3.45;;;;;;;11.88;34.13;93450.34;5111700;28;20433;-78
2023/03/15 11:22:19;;;;;;;6.35;3.40;;;;;;;11.70;33.88;93438.34;5094629;28;20118;-78
2023/03/15 11:24:45;;;;;;;4.63;3.35;;;;;;;11.49;34.43;93454.47;5111193;28;20044;-78
2023/03/15 11:27:13;;;;;;;5.78;3.70;;;;;;;11.62;34.66;93462.59;5094439;28;20059;-78
2023/03/15 11:29:39;;;;;;;9.90;4.22;;;;;;;11.58;35.03;93461.28;5093866;28;20032;-78
2023/03/15 11:32:16;;;;;;;5.88;3.72;;;;;;;11.68;34.83;93429.88;5094262;28;20417;-78
2023/03/15 11:35:06;;;;;;;4.93;3.13;;;;;;;11.94;34.26;93447.06;5094612;28;20030;-78
2023/03/15 11:37:40;;;;;;;6.13;3.42;;;;;;;12.23;34.05;93444.69;5112563;28;20035;-78
2023/03/15 11:40:12;;;;;;;5.50;3.80;;;;;;;12.17;33.77;93445.34;5112834;28;20055;-78
2023/03/15 11:42:56;;;;;;;10.32;5.93;;;;;;;12.34;33.99;93448.69;5112384;28;20039;-78
2023/03/15 11:45:57;;;;;;;5.82;4.13;;;;;;;12.06;34.07;93422.28;5093897;28;20061;-78
2023/03/15 11:48:44;;;;;;;4.95;4.00;;;;;;;12.26;33.84;93443.53;5096341;28;20481;-78
2023/03/15 11:51:10;;;;;;;9.40;4.60;;;;;;;12.31;33.64;93438.59;5094305;28;20517;-78